Time;durP1;ratioP1;P1;durP2;ratioP2;P2;SDS_P1;SDS_P2;PMS_P1;PMS_P2;Temp;Humidity;BMP_temperature;BMP_pressure;BME280_temperature;BME280_humidity;BME280_pressure;Samples;Min_cycle;Max_cycle;Signal;HPM_P1;HPM_P2
2024/04/12 00:00:21;;;;;;;;;;;;;;;;;;371420;26;1418;-86
2024/04/12 00:00:33;;;;;;;;;;;;;;;;;;371591;26;802;-86
2024/04/12 00:00:47;;;;;;;;;;;;;;;;;;371534;26;981;-87
2024/04/12 00:01:01;;;;;;;;;;;;;;;;;;371744;26;1174;-86
2024/04/12 00:01:12;;;;;;;;;;;;;;;;;;371925;26;1055;-86
2024/04/12 00:01:22;;;;;;;;;;;;;;;;;;371490;26;1451;-87
2024/04/12 00:01:32;;;;;;;;;;;;;;;;;;371536;26;1354;-87
2024/04/12 00:01:44;;;;;;;;;;;;;;;;;;371637;26;1819;-87
2024/04/12 00:01:54;;;;;;;;;;;;;;;;;;371690;26;750;-87
2024/04/12 00:02:05;;;;;;;;;;;;;;;;;;371473;26;770;-87
2024/04/12 00:02:15;;;;;;;;;;;;;;;;;;371593;26;834;-87
2024/04/12 00:02:26;;;;;;;;;;;;;;;;;;371617;26;1096;-87
2024/04/12 00:02:36;;;;;;;;;;;;;;;;;;371617;26;1277;-86
2024/04/12 00:02:48;;;;;;;;;;;;;;;;;;371799;26;1083;-87
2024/04/12 00:03:01;;;;;;;;;;;;;;;;;;371481;26;1255;-87
2024/04/12 00:03:11;;;;;;;;;;;;;;;;;;369300;26;1394;-87
2024/04/12 00:03:22;;;;;;;;;;;;;;;;;;371658;26;1454;-87
2024/04/12 00:03:32;;;;;;;;;;;;;;;;;;373629;26;1485;-87
2024/04/12 00:03:48;;;;;;;;;;;;;;;;;;374086;26;1185;-86
2024/04/12 00:03:59;;;;;;;;;;;;;;;;;;376573;26;1016;-85
2024/04/12 00:04:09;;;;;;;;;;;;;;;;;;376479;26;1384;-86
2024/04/12 00:04:20;;;;;;;;;;;;;;;;;;376563;26;1047;-85
2024/04/12 00:04:31;;;;;;;;;;;;;;;;;;372242;26;1920;-86
2024/04/12 00:04:42;;;;;;;;;;;;;;;;;;374078;26;1785;-86
2024/04/12 00:04:53;;;;;;;;;;;;;;;;;;374083;26;1044;-87
2024/04/12 00:05:03;;;;;;;;;;;;;;;;;;376636;26;1376;-87
2024/04/12 00:05:20;;;;;;;;;;;;;;;;;;376631;26;1053;-87
2024/04/12 00:05:30;;;;;;;;;;;;;;;;;;378053;26;1441;-87
2024/04/12 00:05:47;;;;;;;;;;;;;;;;;;379079;26;984;-86
2024/04/12 00:06:00;;;;;;;;;;;;;;;;;;379141;26;996;-87
2024/04/12 00:06:16;;;;;;;;;;;;;;;;;;374014;26;1036;-87
2024/04/12 00:06:30;;;;;;;;;;;;;;;;;;376694;26;1016;-86
2024/04/12 00:06:40;;;;;;;;;;;;;;;;;;374029;26;789;-87
2024/04/12 00:06:54;;;;;;;;;;;;;;;;;;374059;26;1027;-86
2024/04/12 00:07:13;;;;;;;;;;;;;;;;;;374204;26;1165;-87
2024/04/12 00:07:24;;;;;;;;;;;;;;;;;;374193;26;1292;-87
2024/04/12 00:07:35;;;;;;;;;;;;;;;;;;371661;26;917;-86
2024/04/12 00:07:46;;;;;;;;;;;;;;;;;;374237;26;1355;-86
2024/04/12 00:08:02;;;;;;;;;;;;;;;;;;376617;26;1201;-87
2024/04/12 00:08:13;;;;;;;;;;;;;;;;;;376594;26;1635;-87
2024/04/12 00:08:24;;;;;;;;;;;;;;;;;;376506;26;1249;-86
2024/04/12 00:08:34;;;;;;;;;;;;;;;;;;379153;26;1082;-87
2024/04/12 00:08:49;;;;;;;;;;;;;;;;;;376523;26;1202;-87
2024/04/12 00:08:59;;;;;;;;;;;;;;;;;;374203;26;1282;-87
2024/04/12 00:09:09;;;;;;;;;;;;;;;;;;374404;26;794;-87
2024/04/12 00:09:20;;;;;;;;;;;;;;;;;;374091;26;1160;-86
2024/04/12 00:09:31;;;;;;;;;;;;;;;;;;374256;26;1229;-87
2024/04/12 00:09:41;;;;;;;;;;;;;;;;;;371496;26;1336;-87
2024/04/12 00:09:54;;;;;;;;;;;;;;;;;;371694;26;1012;-87
2024/04/12 00:10:06;;;;;;;;;;;;;;;;;;371638;26;786;-86
2024/04/12 00:10:16;;;;;;;;;;;;;;;;;;374071;26;1352;-86
2024/04/12 00:10:26;;;;;;;;;;;;;;;;;;374184;26;1038;-87
2024/04/12 00:10:37;;;;;;;;;;;;;;;;;;371298;26;2266;-86
2024/04/12 00:10:48;;;;;;;;;;;;;;;;;;371640;26;1455;-87
2024/04/12 00:11:03;;;;;;;;;;;;;;;;;;371861;26;1114;-86
2024/04/12 00:11:14;;;;;;;;;;;;;;;;;;371525;26;1011;-87
2024/04/12 00:11:26;;;;;;;;;;;;;;;;;;371679;26;1023;-86
2024/04/12 00:11:39;;;;;;;;;;;;;;;;;;374038;26;1187;-87
2024/04/12 00:11:51;;;;;;;;;;;;;;;;;;373949;26;1558;-87
2024/04/12 00:12:02;;;;;;;;;;;;;;;;;;371922;26;1296;-87
2024/04/12 00:12:14;;;;;;;;;;;;;;;;;;371998;26;825;-87
2024/04/12 00:12:27;;;;;;;;;;;;;;;;;;372036;26;1439;-86
2024/04/12 00:12:38;;;;;;;;;;;;;;;;;;372236;26;939;-87
2024/04/12 00:12:51;;;;;;;;;;;;;;;;;;371638;26;1491;-87
2024/04/12 00:13:01;;;;;;;;;;;;;;;;;;371596;26;1258;-87
2024/04/12 00:13:11;;;;;;;;;;;;;;;;;;371891;26;1312;-87
2024/04/12 00:13:22;;;;;;;;;;;;;;;;;;374310;26;1149;-87
2024/04/12 00:13:32;;;;;;;;;;;;;;;;;;371672;26;790;-86
2024/04/12 00:13:43;;;;;;;;;;;;;;;;;;371662;26;893;-87
2024/04/12 00:13:53;;;;;;;;;;;;;;;;;;369270;26;825;-87
2024/04/12 00:14:05;;;;;;;;;;;;;;;;;;371789;26;1281;-87
2024/04/12 00:14:16;;;;;;;;;;;;;;;;;;374258;26;995;-87
2024/04/12 00:14:26;;;;;;;;;;;;;;;;;;376500;26;1074;-87
2024/04/12 00:14:37;;;;;;;;;;;;;;;;;;376725;26;1050;-87
2024/04/12 00:14:50;;;;;;;;;;;;;;;;;;374209;26;991;-87
2024/04/12 00:15:15;;;;;;;;;;;;;;;;;;368522;26;1543;-87
2024/04/12 00:15:27;;;;;;;;;;;;;;;;;;371579;26;1042;-87
2024/04/12 00:15:38;;;;;;;;;;;;;;;;;;369290;26;1003;-86
2024/04/12 00:15:48;;;;;;;;;;;;;;;;;;369288;26;1285;-86
2024/04/12 00:15:59;;;;;;;;;;;;;;;;;;369125;26;1035;-87
2024/04/12 00:16:10;;;;;;;;;;;;;;;;;;371536;26;1330;-87
2024/04/12 00:16:26;;;;;;;;;;;;;;;;;;371653;26;1055;-87
2024/04/12 00:16:43;;;;;;;;;;;;;;;;;;371552;26;1190;-87
2024/04/12 00:16:53;;;;;;;;;;;;;;;;;;371547;26;1771;-87
2024/04/12 00:17:15;;;;;;;;;;;;;;;;;;376506;26;1311;-87
2024/04/12 00:17:31;;;;;;;;;;;;;;;;;;373835;26;1253;-87
2024/04/12 00:17:41;;;;;;;;;;;;;;;;;;374076;26;1019;-87
2024/04/12 00:17:55;;;;;;;;;;;;;;;;;;374017;26;1325;-87
2024/04/12 00:18:06;;;;;;;;;;;;;;;;;;371712;26;1039;-87
2024/04/12 00:18:16;;;;;;;;;;;;;;;;;;374056;26;1235;-87
2024/04/12 00:18:28;;;;;;;;;;;;;;;;;;374071;26;1091;-86
2024/04/12 00:18:38;;;;;;;;;;;;;;;;;;376513;26;1221;-87
2024/04/12 00:18:49;;;;;;;;;;;;;;;;;;376426;26;1461;-87
2024/04/12 00:19:12;;;;;;;;;;;;;;;;;;373982;26;1549;-87
2024/04/12 00:19:23;;;;;;;;;;;;;;;;;;371506;26;1220;-86
2024/04/12 00:19:35;;;;;;;;;;;;;;;;;;371666;26;1000;-86
2024/04/12 00:19:46;;;;;;;;;;;;;;;;;;371470;26;1157;-86
2024/04/12 00:19:56;;;;;;;;;;;;;;;;;;371323;26;1366;-87
2024/04/12 00:20:10;;;;;;;;;;;;;;;;;;371526;26;1623;-87
2024/04/12 00:20:22;;;;;;;;;;;;;;;;;;371417;26;1214;-87
2024/04/12 00:20:32;;;;;;;;;;;;;;;;;;371694;26;920;-86
2024/04/12 00:20:42;;;;;;;;;;;;;;;;;;373924;26;1329;-87
2024/04/12 00:20:58;;;;;;;;;;;;;;;;;;373914;26;1224;-87
2024/04/12 00:21:08;;;;;;;;;;;;;;;;;;374075;26;1494;-87
2024/04/12 00:21:18;;;;;;;;;;;;;;;;;;374107;26;1063;-86
2024/04/12 00:21:29;;;;;;;;;;;;;;;;;;371633;26;1186;-87
2024/04/12 00:21:46;;;;;;;;;;;;;;;;;;369049;26;1951;-86
2024/04/12 00:21:56;;;;;;;;;;;;;;;;;;366790;26;1359;-86
2024/04/12 00:22:06;;;;;;;;;;;;;;;;;;369352;26;1159;-87
2024/04/12 00:22:17;;;;;;;;;;;;;;;;;;369195;26;1210;-86
2024/04/12 00:22:29;;;;;;;;;;;;;;;;;;369364;26;782;-87
2024/04/12 00:22:40;;;;;;;;;;;;;;;;;;369181;26;1258;-87
2024/04/12 00:22:55;;;;;;;;;;;;;;;;;;369184;26;1051;-86
2024/04/12 00:23:06;;;;;;;;;;;;;;;;;;371517;26;1310;-87
2024/04/12 00:23:19;;;;;;;;;;;;;;;;;;369110;26;1297;-87
2024/04/12 00:23:30;;;;;;;;;;;;;;;;;;371489;26;1571;-87
2024/04/12 00:23:40;;;;;;;;;;;;;;;;;;371722;26;1066;-87
2024/04/12 00:23:53;;;;;;;;;;;;;;;;;;371641;26;1015;-87
2024/04/12 00:24:06;;;;;;;;;;;;;;;;;;371362;26;1190;-87
2024/04/12 00:24:16;;;;;;;;;;;;;;;;;;368954;26;1325;-87
2024/04/12 00:24:29;;;;;;;;;;;;;;;;;;369073;26;1199;-86
2024/04/12 00:24:39;;;;;;;;;;;;;;;;;;369312;26;1023;-87
2024/04/12 00:24:49;;;;;;;;;;;;;;;;;;369272;26;1094;-87
2024/04/12 00:25:04;;;;;;;;;;;;;;;;;;374083;26;1227;-87
2024/04/12 00:25:14;;;;;;;;;;;;;;;;;;371622;26;1213;-87
2024/04/12 00:25:24;;;;;;;;;;;;;;;;;;371137;26;2079;-86
2024/04/12 00:25:35;;;;;;;;;;;;;;;;;;371649;26;1031;-86
2024/04/12 00:25:46;;;;;;;;;;;;;;;;;;371837;26;1087;-86
2024/04/12 00:26:00;;;;;;;;;;;;;;;;;;371789;26;947;-86
2024/04/12 00:26:11;;;;;;;;;;;;;;;;;;374008;26;1015;-87
2024/04/12 00:26:27;;;;;;;;;;;;;;;;;;374256;26;797;-86
2024/04/12 00:26:43;;;;;;;;;;;;;;;;;;374186;26;789;-86
2024/04/12 00:26:53;;;;;;;;;;;;;;;;;;373944;26;1269;-87
2024/04/12 00:27:05;;;;;;;;;;;;;;;;;;374163;26;920;-87
2024/04/12 00:27:16;;;;;;;;;;;;;;;;;;371497;26;1165;-86
2024/04/12 00:27:26;;;;;;;;;;;;;;;;;;374011;26;1257;-86
2024/04/12 00:27:37;;;;;;;;;;;;;;;;;;374045;26;1095;-86
2024/04/12 00:27:47;;;;;;;;;;;;;;;;;;373986;26;1216;-87
2024/04/12 00:27:58;;;;;;;;;;;;;;;;;;373911;26;916;-86
2024/04/12 00:28:09;;;;;;;;;;;;;;;;;;371658;26;922;-87
2024/04/12 00:28:22;;;;;;;;;;;;;;;;;;371408;26;1169;-87
2024/04/12 00:28:33;;;;;;;;;;;;;;;;;;371770;26;1022;-87
2024/04/12 00:28:43;;;;;;;;;;;;;;;;;;369958;26;1458;-87
2024/04/12 00:28:53;;;;;;;;;;;;;;;;;;371709;26;1052;-86
2024/04/12 00:29:08;;;;;;;;;;;;;;;;;;371531;26;1365;-86
2024/04/12 00:29:30;;;;;;;;;;;;;;;;;;371582;26;1019;-87
2024/04/12 00:29:41;;;;;;;;;;;;;;;;;;369492;26;1039;-86
2024/04/12 00:29:53;;;;;;;;;;;;;;;;;;371670;26;999;-87
2024/04/12 00:30:03;;;;;;;;;;;;;;;;;;369287;26;1070;-87
2024/04/12 00:30:37;;;;;;;;;;;;;;;;;;369448;26;1517;-87
2024/04/12 00:30:45;;;;;;;;;;;;;;;;;;371022;26;1061;-86
2024/04/12 00:30:59;;;;;;;;;;;;;;;;;;374101;26;1004;-87
2024/04/12 00:31:13;;;;;;;;;;;;;;;;;;369085;26;1200;-86
2024/04/12 00:31:26;;;;;;;;;;;;;;;;;;371438;26;1240;-87
2024/04/12 00:31:42;;;;;;;;;;;;;;;;;;371691;26;1071;-87
2024/04/12 00:31:53;;;;;;;;;;;;;;;;;;371710;26;1557;-87
2024/04/12 00:32:05;;;;;;;;;;;;;;;;;;376359;26;1036;-87
2024/04/12 00:32:18;;;;;;;;;;;;;;;;;;376529;26;1066;-86
2024/04/12 00:32:28;;;;;;;;;;;;;;;;;;376461;26;1216;-87
2024/04/12 00:32:42;;;;;;;;;;;;;;;;;;376667;26;970;-86
2024/04/12 00:32:57;;;;;;;;;;;;;;;;;;374004;26;1264;-86
2024/04/12 00:33:09;;;;;;;;;;;;;;;;;;374038;26;1020;-87
2024/04/12 00:33:20;;;;;;;;;;;;;;;;;;376267;26;1363;-86
2024/04/12 00:33:31;;;;;;;;;;;;;;;;;;371633;26;908;-87
2024/04/12 00:33:42;;;;;;;;;;;;;;;;;;373954;26;999;-87
2024/04/12 00:33:55;;;;;;;;;;;;;;;;;;373777;26;1315;-87
2024/04/12 00:34:05;;;;;;;;;;;;;;;;;;376308;26;1210;-87
2024/04/12 00:34:15;;;;;;;;;;;;;;;;;;376531;26;1079;-87
2024/04/12 00:34:36;;;;;;;;;;;;;;;;;;376613;26;988;-87
2024/04/12 00:34:51;;;;;;;;;;;;;;;;;;371658;26;1058;-87
2024/04/12 00:35:02;;;;;;;;;;;;;;;;;;371748;26;998;-87
2024/04/12 00:35:12;;;;;;;;;;;;;;;;;;371579;26;910;-87
2024/04/12 00:35:34;;;;;;;;;;;;;;;;;;369090;26;1684;-87
2024/04/12 00:35:49;;;;;;;;;;;;;;;;;;371440;26;1445;-87
2024/04/12 00:36:13;;;;;;;;;;;;;;;;;;373912;26;1015;-86
2024/04/12 00:36:24;;;;;;;;;;;;;;;;;;374130;26;1027;-87
2024/04/12 00:36:34;;;;;;;;;;;;;;;;;;374235;26;805;-87
2024/04/12 00:36:48;;;;;;;;;;;;;;;;;;376685;26;1124;-87
2024/04/12 00:37:07;;;;;;;;;;;;;;;;;;376468;26;1240;-86
2024/04/12 00:37:17;;;;;;;;;;;;;;;;;;376514;26;1133;-87
2024/04/12 00:37:28;;;;;;;;;;;;;;;;;;373950;26;1310;-86
2024/04/12 00:37:52;;;;;;;;;;;;;;;;;;374027;26;1007;-87
2024/04/12 00:38:12;;;;;;;;;;;;;;;;;;373730;26;1310;-86
2024/04/12 00:38:23;;;;;;;;;;;;;;;;;;371725;26;1167;-87
2024/04/12 00:38:36;;;;;;;;;;;;;;;;;;371796;26;1056;-86
2024/04/12 00:38:46;;;;;;;;;;;;;;;;;;369750;26;1174;-87
2024/04/12 00:38:57;;;;;;;;;;;;;;;;;;371849;26;1087;-86
2024/04/12 00:39:07;;;;;;;;;;;;;;;;;;371652;26;924;-87
2024/04/12 00:39:35;;;;;;;;;;;;;;;;;;371679;26;1059;-86
2024/04/12 00:39:49;;;;;;;;;;;;;;;;;;371579;26;1222;-86
2024/04/12 00:40:00;;;;;;;;;;;;;;;;;;371783;26;1330;-87
2024/04/12 00:40:10;;;;;;;;;;;;;;;;;;371670;26;1460;-86
2024/04/12 00:40:21;;;;;;;;;;;;;;;;;;373652;26;1552;-87
2024/04/12 00:40:32;;;;;;;;;;;;;;;;;;376323;26;1068;-87
2024/04/12 00:40:46;;;;;;;;;;;;;;;;;;374275;26;1559;-87
2024/04/12 00:41:00;;;;;;;;;;;;;;;;;;376436;26;1454;-86
2024/04/12 00:41:14;;;;;;;;;;;;;;;;;;376608;26;1192;-87
2024/04/12 00:41:24;;;;;;;;;;;;;;;;;;376684;26;1042;-86
2024/04/12 00:41:36;;;;;;;;;;;;;;;;;;371617;26;1268;-86
2024/04/12 00:41:46;;;;;;;;;;;;;;;;;;373964;26;1811;-86
2024/04/12 00:41:59;;;;;;;;;;;;;;;;;;371592;26;1024;-87
2024/04/12 00:42:10;;;;;;;;;;;;;;;;;;374153;26;1452;-86
2024/04/12 00:42:31;;;;;;;;;;;;;;;;;;376524;26;1054;-86
2024/04/12 00:42:44;;;;;;;;;;;;;;;;;;376630;26;1085;-87
2024/04/12 00:42:57;;;;;;;;;;;;;;;;;;371546;26;1277;-86
2024/04/12 00:43:11;;;;;;;;;;;;;;;;;;371673;26;1019;-87
2024/04/12 00:43:27;;;;;;;;;;;;;;;;;;374093;26;1071;-87
2024/04/12 00:43:38;;;;;;;;;;;;;;;;;;374474;26;999;-87
2024/04/12 00:43:52;;;;;;;;;;;;;;;;;;371578;26;1290;-87
2024/04/12 00:44:05;;;;;;;;;;;;;;;;;;371640;26;1047;-86
2024/04/12 00:44:16;;;;;;;;;;;;;;;;;;372068;26;1439;-86
2024/04/12 00:44:29;;;;;;;;;;;;;;;;;;371589;26;988;-86
2024/04/12 00:44:42;;;;;;;;;;;;;;;;;;374169;26;816;-87
2024/04/12 00:44:54;;;;;;;;;;;;;;;;;;371879;26;1265;-87
2024/04/12 00:45:11;;;;;;;;;;;;;;;;;;372801;26;2312;-86
2024/04/12 00:45:39;;;;;;;;;;;;;;;;;;371699;26;1116;-87
2024/04/12 00:45:49;;;;;;;;;;;;;;;;;;369154;26;1140;-86
2024/04/12 00:45:59;;;;;;;;;;;;;;;;;;371731;26;1438;-86
2024/04/12 00:46:09;;;;;;;;;;;;;;;;;;369115;26;1216;-87
2024/04/12 00:46:24;;;;;;;;;;;;;;;;;;369401;26;1016;-86
2024/04/12 00:46:40;;;;;;;;;;;;;;;;;;371790;26;1506;-87
2024/04/12 00:46:51;;;;;;;;;;;;;;;;;;371774;26;1288;-86
2024/04/12 00:47:07;;;;;;;;;;;;;;;;;;374240;26;1296;-86
2024/04/12 00:47:19;;;;;;;;;;;;;;;;;;374121;26;1304;-86
2024/04/12 00:47:31;;;;;;;;;;;;;;;;;;371643;26;1023;-87
2024/04/12 00:47:42;;;;;;;;;;;;;;;;;;371505;26;1241;-86
2024/04/12 00:47:54;;;;;;;;;;;;;;;;;;371757;26;1024;-86
2024/04/12 00:48:07;;;;;;;;;;;;;;;;;;374310;26;1075;-87
2024/04/12 00:48:21;;;;;;;;;;;;;;;;;;374285;26;1079;-87
2024/04/12 00:48:31;;;;;;;;;;;;;;;;;;375068;26;806;-87
2024/04/12 00:48:43;;;;;;;;;;;;;;;;;;376678;26;1571;-86
2024/04/12 00:48:57;;;;;;;;;;;;;;;;;;376646;26;1338;-86
2024/04/12 00:49:07;;;;;;;;;;;;;;;;;;371896;26;1039;-86
2024/04/12 00:49:18;;;;;;;;;;;;;;;;;;374122;26;1067;-86
2024/04/12 00:49:30;;;;;;;;;;;;;;;;;;376567;26;1230;-87
2024/04/12 00:49:49;;;;;;;;;;;;;;;;;;376631;26;1390;-86
2024/04/12 00:50:00;;;;;;;;;;;;;;;;;;371705;26;1279;-86
2024/04/12 00:50:15;;;;;;;;;;;;;;;;;;373029;26;1491;-87
2024/04/12 00:50:27;;;;;;;;;;;;;;;;;;374353;26;1270;-86
2024/04/12 00:50:40;;;;;;;;;;;;;;;;;;371704;26;1225;-86
2024/04/12 00:50:51;;;;;;;;;;;;;;;;;;369336;26;925;-87
2024/04/12 00:51:02;;;;;;;;;;;;;;;;;;366859;27;1067;-87
2024/04/12 00:51:17;;;;;;;;;;;;;;;;;;370781;26;1644;-86
2024/04/12 00:51:27;;;;;;;;;;;;;;;;;;374265;26;1063;-86
2024/04/12 00:51:38;;;;;;;;;;;;;;;;;;371787;26;1182;-86
2024/04/12 00:51:50;;;;;;;;;;;;;;;;;;376004;26;1343;-86
2024/04/12 00:52:02;;;;;;;;;;;;;;;;;;376609;26;1053;-86
2024/04/12 00:52:12;;;;;;;;;;;;;;;;;;374288;26;1039;-86
2024/04/12 00:52:28;;;;;;;;;;;;;;;;;;371620;26;1016;-87
2024/04/12 00:52:43;;;;;;;;;;;;;;;;;;374021;26;1193;-86
2024/04/12 00:52:53;;;;;;;;;;;;;;;;;;374365;26;936;-86
2024/04/12 00:53:04;;;;;;;;;;;;;;;;;;374398;26;1004;-87
2024/04/12 00:53:14;;;;;;;;;;;;;;;;;;371755;26;1063;-87
2024/04/12 00:53:28;;;;;;;;;;;;;;;;;;371618;26;1312;-87
2024/04/12 00:53:40;;;;;;;;;;;;;;;;;;371685;26;1056;-87
2024/04/12 00:53:59;;;;;;;;;;;;;;;;;;371826;26;805;-86
2024/04/12 00:54:09;;;;;;;;;;;;;;;;;;374035;26;1067;-87
2024/04/12 00:54:20;;;;;;;;;;;;;;;;;;374328;26;1051;-87
2024/04/12 00:54:32;;;;;;;;;;;;;;;;;;369023;26;1297;-86
2024/04/12 00:54:43;;;;;;;;;;;;;;;;;;366878;27;1067;-86
2024/04/12 00:55:02;;;;;;;;;;;;;;;;;;371798;26;1016;-86
2024/04/12 00:55:13;;;;;;;;;;;;;;;;;;374163;26;1023;-86
2024/04/12 00:55:25;;;;;;;;;;;;;;;;;;374301;26;1015;-87
2024/04/12 00:55:41;;;;;;;;;;;;;;;;;;374123;26;1008;-87
2024/04/12 00:56:09;;;;;;;;;;;;;;;;;;374154;26;991;-86
2024/04/12 00:56:19;;;;;;;;;;;;;;;;;;376456;26;1595;-87
2024/04/12 00:56:30;;;;;;;;;;;;;;;;;;376829;26;1000;-86
2024/04/12 00:56:41;;;;;;;;;;;;;;;;;;373981;26;1430;-86
2024/04/12 00:56:51;;;;;;;;;;;;;;;;;;374335;26;1039;-86
2024/04/12 00:57:02;;;;;;;;;;;;;;;;;;373957;26;880;-87
2024/04/12 00:57:14;;;;;;;;;;;;;;;;;;370179;26;1539;-86
2024/04/12 00:57:24;;;;;;;;;;;;;;;;;;371517;26;1068;-87
2024/04/12 00:57:35;;;;;;;;;;;;;;;;;;369232;26;1265;-86
2024/04/12 00:57:46;;;;;;;;;;;;;;;;;;366777;27;862;-87
2024/04/12 00:57:56;;;;;;;;;;;;;;;;;;366878;26;1241;-86
2024/04/12 00:58:09;;;;;;;;;;;;;;;;;;374216;26;1296;-86
2024/04/12 00:58:19;;;;;;;;;;;;;;;;;;378932;26;1223;-86
2024/04/12 00:58:33;;;;;;;;;;;;;;;;;;374531;26;1452;-86
2024/04/12 00:58:44;;;;;;;;;;;;;;;;;;374513;26;1007;-86
2024/04/12 00:58:55;;;;;;;;;;;;;;;;;;371692;26;1225;-86
2024/04/12 00:59:08;;;;;;;;;;;;;;;;;;371588;26;865;-86
2024/04/12 00:59:19;;;;;;;;;;;;;;;;;;371812;26;967;-87
2024/04/12 00:59:31;;;;;;;;;;;;;;;;;;371657;26;1008;-86
2024/04/12 00:59:42;;;;;;;;;;;;;;;;;;373805;26;2157;-86
2024/04/12 00:59:52;;;;;;;;;;;;;;;;;;376351;26;1200;-87
2024/04/12 01:00:09;;;;;;;;;;;;;;;;;;374252;26;1034;-87
2024/04/12 01:00:20;;;;;;;;;;;;;;;;;;371677;26;1621;-85
2024/04/12 01:00:35;;;;;;;;;;;;;;;;;;374067;26;1011;-87
2024/04/12 01:00:47;;;;;;;;;;;;;;;;;;371788;26;1023;-86
2024/04/12 01:01:08;;;;;;;;;;;;;;;;;;373927;26;1311;-86
2024/04/12 01:01:18;;;;;;;;;;;;;;;;;;371683;26;1095;-87
2024/04/12 01:01:29;;;;;;;;;;;;;;;;;;375126;26;1655;-86
2024/04/12 01:01:39;;;;;;;;;;;;;;;;;;374236;26;1840;-86
2024/04/12 01:01:50;;;;;;;;;;;;;;;;;;374410;26;999;-86
2024/04/12 01:02:08;;;;;;;;;;;;;;;;;;374179;26;1042;-86
2024/04/12 01:02:21;;;;;;;;;;;;;;;;;;371658;26;1023;-87
2024/04/12 01:02:32;;;;;;;;;;;;;;;;;;369266;26;1016;-86
2024/04/12 01:02:42;;;;;;;;;;;;;;;;;;371512;26;1246;-87
2024/04/12 01:02:58;;;;;;;;;;;;;;;;;;373950;26;1214;-86
2024/04/12 01:03:14;;;;;;;;;;;;;;;;;;374019;26;1023;-86
2024/04/12 01:03:24;;;;;;;;;;;;;;;;;;374263;26;1051;-86
2024/04/12 01:03:34;;;;;;;;;;;;;;;;;;374233;26;1189;-86
2024/04/12 01:03:49;;;;;;;;;;;;;;;;;;371565;26;1214;-86
2024/04/12 01:04:00;;;;;;;;;;;;;;;;;;369004;26;1327;-86
2024/04/12 01:04:12;;;;;;;;;;;;;;;;;;369326;26;1274;-86
2024/04/12 01:04:23;;;;;;;;;;;;;;;;;;369264;26;1175;-86
2024/04/12 01:04:34;;;;;;;;;;;;;;;;;;371761;26;838;-86
2024/04/12 01:04:45;;;;;;;;;;;;;;;;;;372833;26;1222;-86
2024/04/12 01:04:55;;;;;;;;;;;;;;;;;;371561;26;1268;-87
2024/04/12 01:05:10;;;;;;;;;;;;;;;;;;371552;26;1300;-86
2024/04/12 01:05:21;;;;;;;;;;;;;;;;;;371776;26;924;-86
2024/04/12 01:05:35;;;;;;;;;;;;;;;;;;371370;26;1311;-86
2024/04/12 01:05:46;;;;;;;;;;;;;;;;;;369328;26;1028;-87
2024/04/12 01:06:01;;;;;;;;;;;;;;;;;;371739;26;1221;-87
2024/04/12 01:06:24;;;;;;;;;;;;;;;;;;369300;26;1043;-87
2024/04/12 01:06:34;;;;;;;;;;;;;;;;;;371662;26;1311;-87
2024/04/12 01:06:44;;;;;;;;;;;;;;;;;;371726;26;1193;-87
2024/04/12 01:06:56;;;;;;;;;;;;;;;;;;369382;26;992;-86
2024/04/12 01:07:06;;;;;;;;;;;;;;;;;;369331;26;1060;-86
2024/04/12 01:07:18;;;;;;;;;;;;;;;;;;369160;26;991;-86
2024/04/12 01:07:28;;;;;;;;;;;;;;;;;;369182;26;1040;-86
2024/04/12 01:07:39;;;;;;;;;;;;;;;;;;371856;26;1003;-87
2024/04/12 01:07:49;;;;;;;;;;;;;;;;;;369298;26;1043;-87
2024/04/12 01:08:00;;;;;;;;;;;;;;;;;;370118;26;1183;-86
2024/04/12 01:08:10;;;;;;;;;;;;;;;;;;371614;26;1328;-86
2024/04/12 01:08:22;;;;;;;;;;;;;;;;;;369355;26;943;-87
2024/04/12 01:08:32;;;;;;;;;;;;;;;;;;369252;26;833;-87
2024/04/12 01:08:46;;;;;;;;;;;;;;;;;;371561;26;1571;-86
2024/04/12 01:09:10;;;;;;;;;;;;;;;;;;369305;26;774;-87
2024/04/12 01:09:21;;;;;;;;;;;;;;;;;;369250;26;1032;-86
2024/04/12 01:09:35;;;;;;;;;;;;;;;;;;369461;26;1053;-86
2024/04/12 01:09:45;;;;;;;;;;;;;;;;;;374135;26;818;-86
2024/04/12 01:09:57;;;;;;;;;;;;;;;;;;376558;26;1074;-86
2024/04/12 01:10:11;;;;;;;;;;;;;;;;;;374353;26;765;-87
2024/04/12 01:10:30;;;;;;;;;;;;;;;;;;374131;26;841;-86
2024/04/12 01:10:44;;;;;;;;;;;;;;;;;;373922;26;994;-87
2024/04/12 01:10:54;;;;;;;;;;;;;;;;;;371601;26;1324;-86
2024/04/12 01:11:08;;;;;;;;;;;;;;;;;;371614;26;1291;-86
2024/04/12 01:11:22;;;;;;;;;;;;;;;;;;374168;26;1039;-86
2024/04/12 01:11:34;;;;;;;;;;;;;;;;;;376706;26;1031;-86
2024/04/12 01:11:44;;;;;;;;;;;;;;;;;;372256;26;1490;-86
2024/04/12 01:11:59;;;;;;;;;;;;;;;;;;379105;26;1242;-86
2024/04/12 01:12:17;;;;;;;;;;;;;;;;;;376427;26;1055;-87
2024/04/12 01:12:28;;;;;;;;;;;;;;;;;;371360;26;1285;-86
2024/04/12 01:12:39;;;;;;;;;;;;;;;;;;371937;26;767;-87
2024/04/12 01:12:54;;;;;;;;;;;;;;;;;;374122;26;1077;-87
2024/04/12 01:13:05;;;;;;;;;;;;;;;;;;371755;26;1039;-87
2024/04/12 01:13:17;;;;;;;;;;;;;;;;;;373104;26;1573;-86
2024/04/12 01:13:28;;;;;;;;;;;;;;;;;;374167;26;1090;-85
2024/04/12 01:13:38;;;;;;;;;;;;;;;;;;371776;26;1086;-86
2024/04/12 01:13:49;;;;;;;;;;;;;;;;;;371675;26;1193;-87
2024/04/12 01:13:59;;;;;;;;;;;;;;;;;;371660;26;984;-87
2024/04/12 01:14:10;;;;;;;;;;;;;;;;;;369150;26;1012;-86
2024/04/12 01:14:20;;;;;;;;;;;;;;;;;;373908;26;1170;-87
2024/04/12 01:14:30;;;;;;;;;;;;;;;;;;371500;26;2018;-86
2024/04/12 01:14:42;;;;;;;;;;;;;;;;;;371518;26;1718;-86
2024/04/12 01:14:55;;;;;;;;;;;;;;;;;;376565;26;903;-85
2024/04/12 01:15:07;;;;;;;;;;;;;;;;;;376659;26;1074;-86
2024/04/12 01:15:19;;;;;;;;;;;;;;;;;;376686;26;867;-87
2024/04/12 01:15:36;;;;;;;;;;;;;;;;;;376409;26;1178;-86
2024/04/12 01:15:47;;;;;;;;;;;;;;;;;;376737;26;1016;-86
2024/04/12 01:15:58;;;;;;;;;;;;;;;;;;376637;26;1268;-86
2024/04/12 01:16:10;;;;;;;;;;;;;;;;;;375688;26;1039;-87
2024/04/12 01:16:24;;;;;;;;;;;;;;;;;;374283;26;1298;-86
2024/04/12 01:16:38;;;;;;;;;;;;;;;;;;374043;26;1055;-86
2024/04/12 01:16:54;;;;;;;;;;;;;;;;;;371830;26;1307;-86
2024/04/12 01:17:09;;;;;;;;;;;;;;;;;;374261;26;1293;-86
2024/04/12 01:17:19;;;;;;;;;;;;;;;;;;371775;26;1043;-87
2024/04/12 01:17:29;;;;;;;;;;;;;;;;;;369255;26;1253;-86
2024/04/12 01:17:40;;;;;;;;;;;;;;;;;;369234;26;944;-87
2024/04/12 01:17:51;;;;;;;;;;;;;;;;;;367077;27;806;-87
2024/04/12 01:18:04;;;;;;;;;;;;;;;;;;369169;26;1282;-87
2024/04/12 01:18:14;;;;;;;;;;;;;;;;;;371687;26;1253;-87
2024/04/12 01:18:25;;;;;;;;;;;;;;;;;;371645;26;1241;-86
2024/04/12 01:18:35;;;;;;;;;;;;;;;;;;371846;26;1023;-86
2024/04/12 01:18:45;;;;;;;;;;;;;;;;;;371778;26;1091;-87
2024/04/12 01:18:56;;;;;;;;;;;;;;;;;;371798;26;1012;-87
2024/04/12 01:19:11;;;;;;;;;;;;;;;;;;371760;26;1142;-87
2024/04/12 01:19:22;;;;;;;;;;;;;;;;;;374828;26;1241;-87
2024/04/12 01:19:34;;;;;;;;;;;;;;;;;;376824;26;1095;-86
2024/04/12 01:19:46;;;;;;;;;;;;;;;;;;376785;26;913;-86
2024/04/12 01:19:56;;;;;;;;;;;;;;;;;;376662;26;1357;-85
2024/04/12 01:20:07;;;;;;;;;;;;;;;;;;376789;26;1122;-85
2024/04/12 01:20:17;;;;;;;;;;;;;;;;;;371767;26;1186;-86
2024/04/12 01:20:28;;;;;;;;;;;;;;;;;;375324;26;1426;-86
2024/04/12 01:20:39;;;;;;;;;;;;;;;;;;374195;26;1426;-86
2024/04/12 01:20:49;;;;;;;;;;;;;;;;;;376740;26;1259;-86
2024/04/12 01:21:00;;;;;;;;;;;;;;;;;;376644;26;1626;-86
2024/04/12 01:21:11;;;;;;;;;;;;;;;;;;374203;26;1118;-86
2024/04/12 01:21:24;;;;;;;;;;;;;;;;;;374329;26;1024;-86
2024/04/12 01:21:34;;;;;;;;;;;;;;;;;;374394;26;991;-86
2024/04/12 01:21:45;;;;;;;;;;;;;;;;;;374300;26;1810;-86
2024/04/12 01:21:55;;;;;;;;;;;;;;;;;;374156;26;1367;-86
2024/04/12 01:22:05;;;;;;;;;;;;;;;;;;374286;26;1451;-86
2024/04/12 01:22:15;;;;;;;;;;;;;;;;;;374209;26;1248;-86
2024/04/12 01:22:26;;;;;;;;;;;;;;;;;;374221;26;1201;-86
2024/04/12 01:22:36;;;;;;;;;;;;;;;;;;374110;26;1091;-86
2024/04/12 01:22:46;;;;;;;;;;;;;;;;;;371879;26;1190;-86
2024/04/12 01:22:58;;;;;;;;;;;;;;;;;;374224;26;1197;-86
2024/04/12 01:23:10;;;;;;;;;;;;;;;;;;374261;26;1027;-86
2024/04/12 01:23:20;;;;;;;;;;;;;;;;;;374328;26;1293;-86
2024/04/12 01:23:30;;;;;;;;;;;;;;;;;;376531;26;1573;-86
2024/04/12 01:23:42;;;;;;;;;;;;;;;;;;376819;26;1003;-87
2024/04/12 01:23:56;;;;;;;;;;;;;;;;;;374196;26;817;-86
2024/04/12 01:24:09;;;;;;;;;;;;;;;;;;374155;26;1070;-86
2024/04/12 01:24:21;;;;;;;;;;;;;;;;;;371492;26;1335;-86
2024/04/12 01:24:35;;;;;;;;;;;;;;;;;;371728;26;1312;-87
2024/04/12 01:24:45;;;;;;;;;;;;;;;;;;369316;26;1246;-87
2024/04/12 01:24:57;;;;;;;;;;;;;;;;;;369509;26;980;-86
2024/04/12 01:25:09;;;;;;;;;;;;;;;;;;371751;26;1372;-86
2024/04/12 01:25:20;;;;;;;;;;;;;;;;;;371874;26;1074;-87
2024/04/12 01:25:31;;;;;;;;;;;;;;;;;;374408;26;1222;-86
2024/04/12 01:25:44;;;;;;;;;;;;;;;;;;371839;26;1300;-85
2024/04/12 01:25:56;;;;;;;;;;;;;;;;;;371843;26;1076;-86
2024/04/12 01:26:09;;;;;;;;;;;;;;;;;;374361;26;788;-85
2024/04/12 01:26:20;;;;;;;;;;;;;;;;;;374381;26;1008;-85
2024/04/12 01:26:30;;;;;;;;;;;;;;;;;;374132;26;813;-86
2024/04/12 01:26:41;;;;;;;;;;;;;;;;;;373972;26;1323;-87
2024/04/12 01:26:53;;;;;;;;;;;;;;;;;;374233;26;1059;-86
2024/04/12 01:27:06;;;;;;;;;;;;;;;;;;374042;26;1074;-87
2024/04/12 01:27:16;;;;;;;;;;;;;;;;;;371467;26;1276;-86
2024/04/12 01:27:31;;;;;;;;;;;;;;;;;;376266;26;1900;-86
2024/04/12 01:27:41;;;;;;;;;;;;;;;;;;379169;26;1035;-87
2024/04/12 01:27:51;;;;;;;;;;;;;;;;;;373975;26;1229;-86
2024/04/12 01:28:03;;;;;;;;;;;;;;;;;;376810;26;1180;-86
2024/04/12 01:28:15;;;;;;;;;;;;;;;;;;374374;26;1006;-87